sensor_id;sensor_type;location;lat;lon;timestamp;P1;durP1;ratioP1;P2;durP2;ratioP2
71202;SDS011;58929;47.490;19.090;2023-03-31T00:01:00;13.25;;;7.60;;
71202;SDS011;58929;47.490;19.090;2023-03-31T00:03:31;10.10;;;7.22;;
71202;SDS011;58929;47.490;19.090;2023-03-31T00:06:04;12.75;;;7.78;;
71202;SDS011;58929;47.490;19.090;2023-03-31T00:08:33;18.38;;;9.07;;
71202;SDS011;58929;47.490;19.090;2023-03-31T00:11:05;14.02;;;8.45;;
71202;SDS011;58929;47.490;19.090;2023-03-31T00:13:35;14.23;;;7.95;;
71202;SDS011;58929;47.490;19.090;2023-03-31T00:16:04;12.30;;;8.07;;
71202;SDS011;58929;47.490;19.090;2023-03-31T00:18:32;17.70;;;8.48;;
71202;SDS011;58929;47.490;19.090;2023-03-31T00:21:07;14.90;;;7.35;;
71202;SDS011;58929;47.490;19.090;2023-03-31T00:23:40;14.70;;;8.82;;
71202;SDS011;58929;47.490;19.090;2023-03-31T00:26:08;11.30;;;7.78;;
71202;SDS011;58929;47.490;19.090;2023-03-31T00:28:38;15.20;;;8.57;;
71202;SDS011;58929;47.490;19.090;2023-03-31T00:31:06;17.17;;;8.82;;
71202;SDS011;58929;47.490;19.090;2023-03-31T00:33:34;12.85;;;8.52;;
71202;SDS011;58929;47.490;19.090;2023-03-31T00:36:02;13.13;;;9.07;;
71202;SDS011;58929;47.490;19.090;2023-03-31T00:38:32;16.85;;;8.60;;
71202;SDS011;58929;47.490;19.090;2023-03-31T00:41:00;12.57;;;6.95;;
71202;SDS011;58929;47.490;19.090;2023-03-31T00:43:29;12.32;;;8.15;;
71202;SDS011;58929;47.490;19.090;2023-03-31T00:46:04;10.05;;;6.85;;
71202;SDS011;58929;47.490;19.090;2023-03-31T00:48:34;14.52;;;8.20;;
71202;SDS011;58929;47.490;19.090;2023-03-31T00:51:03;11.80;;;7.72;;
71202;SDS011;58929;47.490;19.090;2023-03-31T00:53:32;12.50;;;7.65;;
71202;SDS011;58929;47.490;19.090;2023-03-31T00:56:03;12.00;;;7.13;;
71202;SDS011;58929;47.490;19.090;2023-03-31T00:58:33;14.40;;;7.63;;
71202;SDS011;58929;47.490;19.090;2023-03-31T01:01:11;13.18;;;7.95;;
71202;SDS011;58929;47.490;19.090;2023-03-31T01:03:41;14.10;;;8.23;;
71202;SDS011;58929;47.490;19.090;2023-03-31T01:06:12;9.95;;;7.13;;
71202;SDS011;58929;47.490;19.090;2023-03-31T01:08:43;16.25;;;7.85;;
71202;SDS011;58929;47.490;19.090;2023-03-31T01:11:13;10.18;;;6.80;;
71202;SDS011;58929;47.490;19.090;2023-03-31T01:13:42;14.13;;;7.78;;
71202;SDS011;58929;47.490;19.090;2023-03-31T01:16:13;13.55;;;7.65;;
71202;SDS011;58929;47.490;19.090;2023-03-31T01:18:41;15.55;;;7.95;;
71202;SDS011;58929;47.490;19.090;2023-03-31T01:21:20;15.60;;;7.50;;
71202;SDS011;58929;47.490;19.090;2023-03-31T01:26:55;16.15;;;7.63;;
71202;SDS011;58929;47.490;19.090;2023-03-31T01:29:40;11.98;;;7.15;;
71202;SDS011;58929;47.490;19.090;2023-03-31T01:35:08;17.50;;;8.18;;
71202;SDS011;58929;47.490;19.090;2023-03-31T01:43:13;16.23;;;7.95;;
71202;SDS011;58929;47.490;19.090;2023-03-31T01:45:51;11.10;;;7.13;;
71202;SDS011;58929;47.490;19.090;2023-03-31T01:48:22;13.70;;;7.47;;
71202;SDS011;58929;47.490;19.090;2023-03-31T01:50:56;10.93;;;7.50;;
71202;SDS011;58929;47.490;19.090;2023-03-31T01:53:26;10.23;;;6.72;;
71202;SDS011;58929;47.490;19.090;2023-03-31T01:55:58;9.40;;;6.30;;
71202;SDS011;58929;47.490;19.090;2023-03-31T01:58:29;12.48;;;6.80;;
71202;SDS011;58929;47.490;19.090;2023-03-31T02:01:01;11.75;;;6.55;;
71202;SDS011;58929;47.490;19.090;2023-03-31T02:03:29;10.48;;;6.53;;
71202;SDS011;58929;47.490;19.090;2023-03-31T02:06:02;14.90;;;6.95;;
71202;SDS011;58929;47.490;19.090;2023-03-31T02:08:33;9.85;;;6.47;;
71202;SDS011;58929;47.490;19.090;2023-03-31T02:11:02;9.15;;;6.30;;
71202;SDS011;58929;47.490;19.090;2023-03-31T02:13:32;12.52;;;7.00;;
71202;SDS011;58929;47.490;19.090;2023-03-31T02:16:03;12.15;;;7.18;;
71202;SDS011;58929;47.490;19.090;2023-03-31T02:18:34;9.65;;;6.43;;
71202;SDS011;58929;47.490;19.090;2023-03-31T02:21:04;12.15;;;6.28;;
71202;SDS011;58929;47.490;19.090;2023-03-31T02:23:35;11.48;;;6.57;;
71202;SDS011;58929;47.490;19.090;2023-03-31T02:26:06;10.68;;;6.85;;
71202;SDS011;58929;47.490;19.090;2023-03-31T02:28:36;12.82;;;6.00;;
71202;SDS011;58929;47.490;19.090;2023-03-31T02:31:06;10.02;;;5.93;;
71202;SDS011;58929;47.490;19.090;2023-03-31T02:33:36;8.88;;;5.80;;
71202;SDS011;58929;47.490;19.090;2023-03-31T02:36:07;12.88;;;4.90;;
71202;SDS011;58929;47.490;19.090;2023-03-31T02:38:37;10.85;;;5.53;;
71202;SDS011;58929;47.490;19.090;2023-03-31T02:41:06;9.88;;;4.72;;
71202;SDS011;58929;47.490;19.090;2023-03-31T02:43:34;8.38;;;4.68;;
71202;SDS011;58929;47.490;19.090;2023-03-31T02:46:03;8.27;;;5.30;;
71202;SDS011;58929;47.490;19.090;2023-03-31T02:48:32;8.40;;;5.20;;
71202;SDS011;58929;47.490;19.090;2023-03-31T02:56:59;5.20;;;4.13;;
71202;SDS011;58929;47.490;19.090;2023-03-31T02:59:34;6.18;;;3.90;;
71202;SDS011;58929;47.490;19.090;2023-03-31T03:02:09;9.10;;;5.22;;
71202;SDS011;58929;47.490;19.090;2023-03-31T03:04:56;7.63;;;4.55;;
71202;SDS011;58929;47.490;19.090;2023-03-31T03:07:30;11.43;;;6.03;;
71202;SDS011;58929;47.490;19.090;2023-03-31T03:10:01;7.65;;;4.32;;
71202;SDS011;58929;47.490;19.090;2023-03-31T03:12:32;9.25;;;4.20;;
71202;SDS011;58929;47.490;19.090;2023-03-31T03:15:04;11.82;;;4.78;;
71202;SDS011;58929;47.490;19.090;2023-03-31T03:17:36;11.15;;;4.93;;
71202;SDS011;58929;47.490;19.090;2023-03-31T03:20:06;9.02;;;4.07;;
71202;SDS011;58929;47.490;19.090;2023-03-31T03:22:36;9.95;;;4.70;;
71202;SDS011;58929;47.490;19.090;2023-03-31T03:25:05;9.02;;;4.55;;
71202;SDS011;58929;47.490;19.090;2023-03-31T03:27:34;6.47;;;4.35;;
71202;SDS011;58929;47.490;19.090;2023-03-31T03:30:03;8.82;;;4.72;;
71202;SDS011;58929;47.490;19.090;2023-03-31T03:32:31;9.90;;;4.03;;
71202;SDS011;58929;47.490;19.090;2023-03-31T03:35:01;7.30;;;4.28;;
71202;SDS011;58929;47.490;19.090;2023-03-31T03:37:30;6.63;;;3.78;;
71202;SDS011;58929;47.490;19.090;2023-03-31T03:40:01;8.60;;;4.18;;
71202;SDS011;58929;47.490;19.090;2023-03-31T03:42:31;5.45;;;3.83;;
71202;SDS011;58929;47.490;19.090;2023-03-31T03:44:59;7.45;;;3.83;;
71202;SDS011;58929;47.490;19.090;2023-03-31T03:47:27;7.00;;;4.15;;
71202;SDS011;58929;47.490;19.090;2023-03-31T03:49:56;6.43;;;3.67;;
71202;SDS011;58929;47.490;19.090;2023-03-31T03:52:25;9.82;;;3.83;;
71202;SDS011;58929;47.490;19.090;2023-03-31T03:54:53;8.05;;;3.72;;
71202;SDS011;58929;47.490;19.090;2023-03-31T03:57:21;9.48;;;3.20;;
71202;SDS011;58929;47.490;19.090;2023-03-31T03:59:49;5.47;;;2.80;;
71202;SDS011;58929;47.490;19.090;2023-03-31T04:02:17;5.65;;;3.28;;
71202;SDS011;58929;47.490;19.090;2023-03-31T04:04:51;4.60;;;3.08;;
71202;SDS011;58929;47.490;19.090;2023-03-31T04:07:19;7.95;;;3.25;;
71202;SDS011;58929;47.490;19.090;2023-03-31T04:09:48;6.07;;;3.10;;
71202;SDS011;58929;47.490;19.090;2023-03-31T04:12:16;5.50;;;3.30;;
71202;SDS011;58929;47.490;19.090;2023-03-31T04:14:44;6.72;;;3.50;;
71202;SDS011;58929;47.490;19.090;2023-03-31T04:17:12;5.65;;;3.28;;
71202;SDS011;58929;47.490;19.090;2023-03-31T04:19:41;3.97;;;3.40;;
71202;SDS011;58929;47.490;19.090;2023-03-31T04:22:09;7.15;;;4.05;;
71202;SDS011;58929;47.490;19.090;2023-03-31T04:24:41;6.03;;;3.13;;
71202;SDS011;58929;47.490;19.090;2023-03-31T04:27:13;8.70;;;4.03;;
71202;SDS011;58929;47.490;19.090;2023-03-31T04:29:42;3.97;;;3.28;;
71202;SDS011;58929;47.490;19.090;2023-03-31T04:32:20;5.82;;;3.30;;
71202;SDS011;58929;47.490;19.090;2023-03-31T04:34:48;5.93;;;3.40;;
71202;SDS011;58929;47.490;19.090;2023-03-31T04:37:17;6.97;;;3.33;;
71202;SDS011;58929;47.490;19.090;2023-03-31T04:39:45;6.63;;;3.72;;
71202;SDS011;58929;47.490;19.090;2023-03-31T04:42:17;6.32;;;3.35;;
71202;SDS011;58929;47.490;19.090;2023-03-31T04:44:45;7.80;;;4.68;;
71202;SDS011;58929;47.490;19.090;2023-03-31T04:47:13;10.65;;;6.70;;
71202;SDS011;58929;47.490;19.090;2023-03-31T04:49:44;6.22;;;3.97;;
71202;SDS011;58929;47.490;19.090;2023-03-31T04:52:18;5.57;;;3.47;;
71202;SDS011;58929;47.490;19.090;2023-03-31T04:54:46;9.13;;;4.15;;
71202;SDS011;58929;47.490;19.090;2023-03-31T04:57:14;6.93;;;3.78;;
71202;SDS011;58929;47.490;19.090;2023-03-31T04:59:43;6.72;;;3.88;;
71202;SDS011;58929;47.490;19.090;2023-03-31T05:02:12;6.38;;;3.50;;
71202;SDS011;58929;47.490;19.090;2023-03-31T05:04:45;7.20;;;3.67;;
71202;SDS011;58929;47.490;19.090;2023-03-31T05:07:13;6.65;;;3.67;;
71202;SDS011;58929;47.490;19.090;2023-03-31T05:09:42;6.70;;;3.80;;
71202;SDS011;58929;47.490;19.090;2023-03-31T05:12:10;7.43;;;4.38;;
71202;SDS011;58929;47.490;19.090;2023-03-31T05:14:38;8.70;;;4.20;;
71202;SDS011;58929;47.490;19.090;2023-03-31T05:17:08;6.00;;;3.40;;
71202;SDS011;58929;47.490;19.090;2023-03-31T05:19:39;8.52;;;3.90;;
71202;SDS011;58929;47.490;19.090;2023-03-31T05:22:07;6.22;;;4.15;;
71202;SDS011;58929;47.490;19.090;2023-03-31T05:24:41;10.80;;;4.68;;
71202;SDS011;58929;47.490;19.090;2023-03-31T05:27:11;6.63;;;3.67;;
71202;SDS011;58929;47.490;19.090;2023-03-31T05:29:39;7.85;;;3.70;;
71202;SDS011;58929;47.490;19.090;2023-03-31T05:32:13;5.60;;;4.10;;
71202;SDS011;58929;47.490;19.090;2023-03-31T05:34:42;9.98;;;4.68;;
71202;SDS011;58929;47.490;19.090;2023-03-31T05:37:11;7.43;;;5.28;;
71202;SDS011;58929;47.490;19.090;2023-03-31T05:39:39;8.52;;;4.68;;
71202;SDS011;58929;47.490;19.090;2023-03-31T05:42:07;5.63;;;4.10;;
71202;SDS011;58929;47.490;19.090;2023-03-31T05:44:35;9.05;;;4.65;;
71202;SDS011;58929;47.490;19.090;2023-03-31T05:47:03;6.13;;;3.92;;
71202;SDS011;58929;47.490;19.090;2023-03-31T05:49:33;8.15;;;4.20;;
71202;SDS011;58929;47.490;19.090;2023-03-31T05:52:00;10.10;;;4.30;;
71202;SDS011;58929;47.490;19.090;2023-03-31T05:54:29;8.90;;;4.13;;
71202;SDS011;58929;47.490;19.090;2023-03-31T05:56:57;8.32;;;4.63;;
71202;SDS011;58929;47.490;19.090;2023-03-31T05:59:25;8.95;;;4.68;;
71202;SDS011;58929;47.490;19.090;2023-03-31T06:01:53;9.65;;;4.70;;
71202;SDS011;58929;47.490;19.090;2023-03-31T06:04:22;14.77;;;8.68;;
71202;SDS011;58929;47.490;19.090;2023-03-31T06:06:51;6.60;;;4.30;;
71202;SDS011;58929;47.490;19.090;2023-03-31T06:09:21;10.02;;;5.03;;
71202;SDS011;58929;47.490;19.090;2023-03-31T06:11:49;8.15;;;4.38;;
71202;SDS011;58929;47.490;19.090;2023-03-31T06:14:17;10.02;;;4.88;;
71202;SDS011;58929;47.490;19.090;2023-03-31T06:16:45;10.55;;;4.60;;
71202;SDS011;58929;47.490;19.090;2023-03-31T06:19:14;8.98;;;5.68;;
71202;SDS011;58929;47.490;19.090;2023-03-31T06:21:42;9.05;;;5.15;;
71202;SDS011;58929;47.490;19.090;2023-03-31T06:24:12;10.35;;;4.80;;
71202;SDS011;58929;47.490;19.090;2023-03-31T06:26:40;10.73;;;5.72;;
71202;SDS011;58929;47.490;19.090;2023-03-31T06:29:08;13.50;;;7.00;;
71202;SDS011;58929;47.490;19.090;2023-03-31T06:31:36;14.10;;;7.43;;
71202;SDS011;58929;47.490;19.090;2023-03-31T06:34:04;13.60;;;6.72;;
71202;SDS011;58929;47.490;19.090;2023-03-31T06:36:34;14.82;;;7.28;;
71202;SDS011;58929;47.490;19.090;2023-03-31T06:39:02;10.23;;;6.85;;
71202;SDS011;58929;47.490;19.090;2023-03-31T06:41:31;11.85;;;6.80;;
71202;SDS011;58929;47.490;19.090;2023-03-31T06:43:59;16.55;;;8.13;;
71202;SDS011;58929;47.490;19.090;2023-03-31T06:46:28;11.80;;;8.63;;
71202;SDS011;58929;47.490;19.090;2023-03-31T06:48:57;13.55;;;8.13;;
71202;SDS011;58929;47.490;19.090;2023-03-31T06:51:26;19.13;;;8.80;;
71202;SDS011;58929;47.490;19.090;2023-03-31T06:53:56;19.83;;;9.57;;
71202;SDS011;58929;47.490;19.090;2023-03-31T06:56:24;18.95;;;9.88;;
71202;SDS011;58929;47.490;19.090;2023-03-31T06:58:54;16.55;;;9.40;;
71202;SDS011;58929;47.490;19.090;2023-03-31T07:01:22;15.88;;;9.15;;
71202;SDS011;58929;47.490;19.090;2023-03-31T07:03:50;18.80;;;9.30;;
71202;SDS011;58929;47.490;19.090;2023-03-31T07:06:18;18.55;;;9.38;;
71202;SDS011;58929;47.490;19.090;2023-03-31T07:08:49;18.17;;;8.88;;
71202;SDS011;58929;47.490;19.090;2023-03-31T07:11:18;15.57;;;8.38;;
71202;SDS011;58929;47.490;19.090;2023-03-31T07:13:46;18.63;;;7.85;;
71202;SDS011;58929;47.490;19.090;2023-03-31T07:16:16;11.23;;;7.45;;
71202;SDS011;58929;47.490;19.090;2023-03-31T07:18:44;20.90;;;8.27;;
71202;SDS011;58929;47.490;19.090;2023-03-31T07:21:12;20.88;;;7.75;;
71202;SDS011;58929;47.490;19.090;2023-03-31T07:23:41;21.35;;;8.27;;
71202;SDS011;58929;47.490;19.090;2023-03-31T07:26:09;11.50;;;7.15;;
71202;SDS011;58929;47.490;19.090;2023-03-31T07:28:37;13.57;;;7.05;;
71202;SDS011;58929;47.490;19.090;2023-03-31T07:31:09;14.02;;;7.45;;
71202;SDS011;58929;47.490;19.090;2023-03-31T07:33:39;13.13;;;7.57;;
71202;SDS011;58929;47.490;19.090;2023-03-31T07:36:09;16.35;;;6.15;;
71202;SDS011;58929;47.490;19.090;2023-03-31T07:38:40;10.93;;;5.95;;
71202;SDS011;58929;47.490;19.090;2023-03-31T07:41:11;12.40;;;6.72;;
71202;SDS011;58929;47.490;19.090;2023-03-31T07:43:40;12.55;;;7.65;;
71202;SDS011;58929;47.490;19.090;2023-03-31T07:46:13;14.27;;;6.72;;
71202;SDS011;58929;47.490;19.090;2023-03-31T07:48:43;17.70;;;6.50;;
71202;SDS011;58929;47.490;19.090;2023-03-31T07:51:12;17.80;;;7.65;;
71202;SDS011;58929;47.490;19.090;2023-03-31T07:53:41;14.98;;;8.45;;
71202;SDS011;58929;47.490;19.090;2023-03-31T07:56:09;13.88;;;7.22;;
71202;SDS011;58929;47.490;19.090;2023-03-31T07:58:37;12.48;;;6.50;;
71202;SDS011;58929;47.490;19.090;2023-03-31T08:01:05;13.52;;;6.82;;
71202;SDS011;58929;47.490;19.090;2023-03-31T08:03:34;10.95;;;6.63;;
71202;SDS011;58929;47.490;19.090;2023-03-31T08:06:03;8.93;;;6.10;;
71202;SDS011;58929;47.490;19.090;2023-03-31T08:08:32;10.70;;;6.50;;
71202;SDS011;58929;47.490;19.090;2023-03-31T08:11:00;12.90;;;6.20;;
71202;SDS011;58929;47.490;19.090;2023-03-31T08:13:28;14.80;;;6.88;;
71202;SDS011;58929;47.490;19.090;2023-03-31T08:15:56;13.68;;;6.45;;
71202;SDS011;58929;47.490;19.090;2023-03-31T08:18:24;9.30;;;5.80;;
71202;SDS011;58929;47.490;19.090;2023-03-31T08:20:55;10.63;;;6.25;;
71202;SDS011;58929;47.490;19.090;2023-03-31T08:23:25;11.68;;;6.10;;
71202;SDS011;58929;47.490;19.090;2023-03-31T08:25:53;10.77;;;5.90;;
71202;SDS011;58929;47.490;19.090;2023-03-31T08:28:21;12.25;;;6.28;;
71202;SDS011;58929;47.490;19.090;2023-03-31T08:30:49;13.48;;;6.22;;
71202;SDS011;58929;47.490;19.090;2023-03-31T08:33:18;10.13;;;5.78;;
71202;SDS011;58929;47.490;19.090;2023-03-31T08:35:46;10.85;;;5.60;;
71202;SDS011;58929;47.490;19.090;2023-03-31T08:38:14;12.18;;;5.93;;
71202;SDS011;58929;47.490;19.090;2023-03-31T08:40:43;11.50;;;5.30;;
71202;SDS011;58929;47.490;19.090;2023-03-31T08:43:12;9.93;;;5.15;;
71202;SDS011;58929;47.490;19.090;2023-03-31T08:45:41;10.20;;;5.32;;
71202;SDS011;58929;47.490;19.090;2023-03-31T08:48:13;9.05;;;4.75;;
71202;SDS011;58929;47.490;19.090;2023-03-31T08:50:49;11.10;;;5.75;;
71202;SDS011;58929;47.490;19.090;2023-03-31T08:53:19;10.13;;;5.47;;
71202;SDS011;58929;47.490;19.090;2023-03-31T08:55:51;9.57;;;4.65;;
71202;SDS011;58929;47.490;19.090;2023-03-31T08:58:25;6.80;;;4.88;;
71202;SDS011;58929;47.490;19.090;2023-03-31T09:00:56;13.85;;;5.63;;
71202;SDS011;58929;47.490;19.090;2023-03-31T09:03:29;11.45;;;5.10;;
71202;SDS011;58929;47.490;19.090;2023-03-31T09:06:00;10.57;;;5.88;;
71202;SDS011;58929;47.490;19.090;2023-03-31T09:08:32;11.82;;;5.30;;
71202;SDS011;58929;47.490;19.090;2023-03-31T09:11:09;7.15;;;3.95;;
71202;SDS011;58929;47.490;19.090;2023-03-31T09:13:42;10.60;;;5.20;;
71202;SDS011;58929;47.490;19.090;2023-03-31T09:16:14;10.98;;;4.95;;
71202;SDS011;58929;47.490;19.090;2023-03-31T09:18:43;8.75;;;4.75;;
71202;SDS011;58929;47.490;19.090;2023-03-31T09:21:15;15.65;;;4.93;;
71202;SDS011;58929;47.490;19.090;2023-03-31T09:23:45;10.48;;;4.88;;
71202;SDS011;58929;47.490;19.090;2023-03-31T09:26:19;10.23;;;4.68;;
71202;SDS011;58929;47.490;19.090;2023-03-31T09:28:49;10.63;;;5.22;;
71202;SDS011;58929;47.490;19.090;2023-03-31T09:31:18;11.50;;;4.82;;
71202;SDS011;58929;47.490;19.090;2023-03-31T09:33:47;15.73;;;5.70;;
71202;SDS011;58929;47.490;19.090;2023-03-31T09:36:18;8.57;;;5.45;;
71202;SDS011;58929;47.490;19.090;2023-03-31T09:38:48;7.60;;;4.78;;
71202;SDS011;58929;47.490;19.090;2023-03-31T09:41:16;12.20;;;5.03;;
71202;SDS011;58929;47.490;19.090;2023-03-31T09:43:47;9.88;;;5.13;;
71202;SDS011;58929;47.490;19.090;2023-03-31T09:46:18;8.75;;;5.07;;
71202;SDS011;58929;47.490;19.090;2023-03-31T09:48:49;9.05;;;4.95;;
71202;SDS011;58929;47.490;19.090;2023-03-31T09:51:19;8.48;;;4.15;;
71202;SDS011;58929;47.490;19.090;2023-03-31T09:53:52;10.57;;;4.60;;
71202;SDS011;58929;47.490;19.090;2023-03-31T09:56:32;7.22;;;4.43;;
71202;SDS011;58929;47.490;19.090;2023-03-31T09:59:02;11.00;;;4.95;;
71202;SDS011;58929;47.490;19.090;2023-03-31T10:01:30;8.23;;;3.60;;
71202;SDS011;58929;47.490;19.090;2023-03-31T10:04:01;6.80;;;3.63;;
71202;SDS011;58929;47.490;19.090;2023-03-31T10:06:32;7.95;;;4.03;;
71202;SDS011;58929;47.490;19.090;2023-03-31T10:09:04;12.95;;;4.72;;
71202;SDS011;58929;47.490;19.090;2023-03-31T10:11:33;9.88;;;4.07;;
71202;SDS011;58929;47.490;19.090;2023-03-31T10:14:03;5.70;;;3.35;;
71202;SDS011;58929;47.490;19.090;2023-03-31T10:16:32;6.03;;;3.58;;
71202;SDS011;58929;47.490;19.090;2023-03-31T10:19:11;6.65;;;3.47;;
71202;SDS011;58929;47.490;19.090;2023-03-31T10:21:41;11.95;;;3.58;;
71202;SDS011;58929;47.490;19.090;2023-03-31T10:24:15;5.75;;;3.72;;
71202;SDS011;58929;47.490;19.090;2023-03-31T10:26:45;6.80;;;3.72;;
71202;SDS011;58929;47.490;19.090;2023-03-31T10:29:17;6.50;;;3.67;;
71202;SDS011;58929;47.490;19.090;2023-03-31T10:31:47;7.00;;;3.63;;
71202;SDS011;58929;47.490;19.090;2023-03-31T10:34:15;6.55;;;3.65;;
71202;SDS011;58929;47.490;19.090;2023-03-31T10:36:44;8.68;;;3.55;;
71202;SDS011;58929;47.490;19.090;2023-03-31T10:39:16;8.45;;;3.25;;
71202;SDS011;58929;47.490;19.090;2023-03-31T10:41:48;7.80;;;3.70;;
71202;SDS011;58929;47.490;19.090;2023-03-31T10:44:31;6.53;;;3.50;;
71202;SDS011;58929;47.490;19.090;2023-03-31T10:47:02;6.95;;;3.13;;
71202;SDS011;58929;47.490;19.090;2023-03-31T10:49:35;3.78;;;2.67;;
71202;SDS011;58929;47.490;19.090;2023-03-31T10:52:08;5.25;;;3.38;;
71202;SDS011;58929;47.490;19.090;2023-03-31T10:54:45;5.97;;;3.47;;
71202;SDS011;58929;47.490;19.090;2023-03-31T10:57:13;6.00;;;3.70;;
71202;SDS011;58929;47.490;19.090;2023-03-31T10:59:47;8.65;;;3.70;;
71202;SDS011;58929;47.490;19.090;2023-03-31T11:05:07;5.78;;;3.67;;
71202;SDS011;58929;47.490;19.090;2023-03-31T11:07:46;6.68;;;3.85;;
71202;SDS011;58929;47.490;19.090;2023-03-31T11:10:29;6.63;;;3.78;;
71202;SDS011;58929;47.490;19.090;2023-03-31T11:13:10;5.75;;;3.80;;
71202;SDS011;58929;47.490;19.090;2023-03-31T11:15:45;4.78;;;3.33;;
71202;SDS011;58929;47.490;19.090;2023-03-31T11:18:22;6.90;;;3.70;;
71202;SDS011;58929;47.490;19.090;2023-03-31T11:20:56;8.13;;;3.80;;
71202;SDS011;58929;47.490;19.090;2023-03-31T11:23:39;8.68;;;3.70;;
71202;SDS011;58929;47.490;19.090;2023-03-31T11:26:09;6.32;;;3.88;;
71202;SDS011;58929;47.490;19.090;2023-03-31T11:28:55;4.53;;;2.97;;
71202;SDS011;58929;47.490;19.090;2023-03-31T11:31:29;7.07;;;3.38;;
71202;SDS011;58929;47.490;19.090;2023-03-31T11:34:05;6.38;;;3.33;;
71202;SDS011;58929;47.490;19.090;2023-03-31T11:36:42;5.53;;;3.17;;
71202;SDS011;58929;47.490;19.090;2023-03-31T11:39:18;5.70;;;2.88;;
71202;SDS011;58929;47.490;19.090;2023-03-31T11:41:51;4.45;;;2.60;;
71202;SDS011;58929;47.490;19.090;2023-03-31T11:44:20;7.00;;;3.15;;
71202;SDS011;58929;47.490;19.090;2023-03-31T11:46:52;5.82;;;3.13;;
71202;SDS011;58929;47.490;19.090;2023-03-31T11:49:22;8.93;;;3.80;;
71202;SDS011;58929;47.490;19.090;2023-03-31T11:51:52;9.23;;;3.40;;
71202;SDS011;58929;47.490;19.090;2023-03-31T11:54:24;6.47;;;2.70;;
71202;SDS011;58929;47.490;19.090;2023-03-31T11:56:54;6.85;;;2.60;;
71202;SDS011;58929;47.490;19.090;2023-03-31T11:59:24;6.32;;;2.88;;
71202;SDS011;58929;47.490;19.090;2023-03-31T12:01:59;9.50;;;3.22;;
71202;SDS011;58929;47.490;19.090;2023-03-31T12:04:31;5.30;;;2.83;;
71202;SDS011;58929;47.490;19.090;2023-03-31T12:07:02;8.85;;;3.50;;
71202;SDS011;58929;47.490;19.090;2023-03-31T12:09:33;6.28;;;2.90;;
71202;SDS011;58929;47.490;19.090;2023-03-31T12:12:04;9.95;;;3.33;;
71202;SDS011;58929;47.490;19.090;2023-03-31T12:14:33;9.30;;;3.45;;
71202;SDS011;58929;47.490;19.090;2023-03-31T12:17:07;7.32;;;2.67;;
71202;SDS011;58929;47.490;19.090;2023-03-31T12:19:40;5.55;;;3.28;;
71202;SDS011;58929;47.490;19.090;2023-03-31T12:22:12;8.95;;;3.10;;
71202;SDS011;58929;47.490;19.090;2023-03-31T12:24:42;10.73;;;2.58;;
71202;SDS011;58929;47.490;19.090;2023-03-31T12:27:10;7.68;;;3.47;;
71202;SDS011;58929;47.490;19.090;2023-03-31T12:29:41;7.28;;;2.88;;
71202;SDS011;58929;47.490;19.090;2023-03-31T12:32:12;6.10;;;3.22;;
71202;SDS011;58929;47.490;19.090;2023-03-31T12:34:43;7.88;;;3.35;;
71202;SDS011;58929;47.490;19.090;2023-03-31T12:37:18;6.28;;;3.22;;
71202;SDS011;58929;47.490;19.090;2023-03-31T12:39:53;8.30;;;3.20;;
71202;SDS011;58929;47.490;19.090;2023-03-31T12:42:34;10.20;;;3.28;;
71202;SDS011;58929;47.490;19.090;2023-03-31T12:45:05;11.45;;;3.40;;
71202;SDS011;58929;47.490;19.090;2023-03-31T12:47:42;5.07;;;2.85;;
71202;SDS011;58929;47.490;19.090;2023-03-31T12:50:20;7.18;;;2.75;;
71202;SDS011;58929;47.490;19.090;2023-03-31T12:52:54;4.13;;;3.03;;
71202;SDS011;58929;47.490;19.090;2023-03-31T12:55:30;11.48;;;3.00;;
71202;SDS011;58929;47.490;19.090;2023-03-31T13:01:00;13.57;;;3.53;;
71202;SDS011;58929;47.490;19.090;2023-03-31T13:03:41;9.75;;;2.85;;
71202;SDS011;58929;47.490;19.090;2023-03-31T13:06:11;10.48;;;3.30;;
71202;SDS011;58929;47.490;19.090;2023-03-31T13:09:00;6.68;;;3.13;;
71202;SDS011;58929;47.490;19.090;2023-03-31T13:11:37;9.25;;;3.30;;
71202;SDS011;58929;47.490;19.090;2023-03-31T13:14:12;5.32;;;3.28;;
71202;SDS011;58929;47.490;19.090;2023-03-31T13:16:42;8.13;;;3.58;;
71202;SDS011;58929;47.490;19.090;2023-03-31T13:19:10;6.68;;;3.22;;
71202;SDS011;58929;47.490;19.090;2023-03-31T13:21:51;8.13;;;3.92;;
71202;SDS011;58929;47.490;19.090;2023-03-31T13:24:21;11.68;;;3.17;;
71202;SDS011;58929;47.490;19.090;2023-03-31T13:26:50;10.38;;;3.25;;
71202;SDS011;58929;47.490;19.090;2023-03-31T13:29:23;7.20;;;3.28;;
71202;SDS011;58929;47.490;19.090;2023-03-31T13:34:38;8.70;;;3.28;;
71202;SDS011;58929;47.490;19.090;2023-03-31T13:37:14;8.80;;;2.83;;
71202;SDS011;58929;47.490;19.090;2023-03-31T13:39:51;7.53;;;2.85;;
71202;SDS011;58929;47.490;19.090;2023-03-31T13:42:33;5.25;;;2.95;;
71202;SDS011;58929;47.490;19.090;2023-03-31T13:47:59;9.48;;;3.67;;
71202;SDS011;58929;47.490;19.090;2023-03-31T13:50:38;8.20;;;3.42;;
71202;SDS011;58929;47.490;19.090;2023-03-31T13:53:14;10.93;;;3.17;;
71202;SDS011;58929;47.490;19.090;2023-03-31T13:55:55;11.55;;;3.38;;
71202;SDS011;58929;47.490;19.090;2023-03-31T13:58:37;9.60;;;2.50;;
71202;SDS011;58929;47.490;19.090;2023-03-31T14:03:53;6.00;;;2.45;;
71202;SDS011;58929;47.490;19.090;2023-03-31T14:06:26;12.57;;;3.20;;
71202;SDS011;58929;47.490;19.090;2023-03-31T14:08:58;7.32;;;2.80;;
71202;SDS011;58929;47.490;19.090;2023-03-31T14:11:29;5.18;;;2.50;;
71202;SDS011;58929;47.490;19.090;2023-03-31T14:13:58;10.27;;;3.55;;
71202;SDS011;58929;47.490;19.090;2023-03-31T14:16:26;9.95;;;3.00;;
71202;SDS011;58929;47.490;19.090;2023-03-31T14:18:58;9.75;;;2.60;;
71202;SDS011;58929;47.490;19.090;2023-03-31T14:21:30;10.85;;;3.20;;
71202;SDS011;58929;47.490;19.090;2023-03-31T14:24:00;10.45;;;2.83;;
71202;SDS011;58929;47.490;19.090;2023-03-31T14:26:37;5.68;;;2.55;;
71202;SDS011;58929;47.490;19.090;2023-03-31T14:29:13;5.10;;;2.47;;
71202;SDS011;58929;47.490;19.090;2023-03-31T14:31:44;10.65;;;2.97;;
71202;SDS011;58929;47.490;19.090;2023-03-31T14:34:21;10.73;;;2.85;;
71202;SDS011;58929;47.490;19.090;2023-03-31T14:36:52;6.70;;;3.08;;
71202;SDS011;58929;47.490;19.090;2023-03-31T14:39:24;7.93;;;2.80;;
71202;SDS011;58929;47.490;19.090;2023-03-31T14:41:58;8.77;;;2.60;;
71202;SDS011;58929;47.490;19.090;2023-03-31T14:44:27;9.32;;;3.00;;
71202;SDS011;58929;47.490;19.090;2023-03-31T14:46:56;5.45;;;2.10;;
71202;SDS011;58929;47.490;19.090;2023-03-31T14:49:25;12.63;;;3.35;;
71202;SDS011;58929;47.490;19.090;2023-03-31T14:51:54;6.53;;;2.80;;
71202;SDS011;58929;47.490;19.090;2023-03-31T14:54:25;9.60;;;2.67;;
71202;SDS011;58929;47.490;19.090;2023-03-31T14:56:57;6.65;;;2.60;;
71202;SDS011;58929;47.490;19.090;2023-03-31T14:59:27;9.45;;;2.35;;
71202;SDS011;58929;47.490;19.090;2023-03-31T15:01:57;8.95;;;3.13;;
71202;SDS011;58929;47.490;19.090;2023-03-31T15:04:27;5.82;;;2.20;;
71202;SDS011;58929;47.490;19.090;2023-03-31T15:07:07;11.73;;;2.97;;
71202;SDS011;58929;47.490;19.090;2023-03-31T15:09:36;7.65;;;2.83;;
71202;SDS011;58929;47.490;19.090;2023-03-31T15:12:06;9.82;;;2.70;;
71202;SDS011;58929;47.490;19.090;2023-03-31T15:14:35;11.88;;;3.00;;
71202;SDS011;58929;47.490;19.090;2023-03-31T15:17:03;11.65;;;3.15;;
71202;SDS011;58929;47.490;19.090;2023-03-31T15:19:32;11.82;;;3.13;;
71202;SDS011;58929;47.490;19.090;2023-03-31T15:22:01;7.57;;;2.65;;